^^
Station Historical Data
Daily Summary for September 22, 2017 Units:  English    Metric   Both
« Previous Day
Next Day »
Daily Weekly Monthly Yearly Custom
  High: Low: Average:
Temperature: 78.9 °F 62.4 °F 70.4 °F
Dew Point: 62.5 °F 51.4 °F 56 °F
Humidity: 84% 50% 61%
Wind Speed: 6.0mph 0.0mph 1.8mph
Wind Gust: 18.0mph - -
Wind- - WNW
Pressure: 30.03 in 29.95 in -
Precipitation: 0.00 in    
Historical Graphs
 
 
Tabular Data for September 22, 2017
Time Temperature Dew Point Pressure Wind Wind Speed Wind Gust Humidity Rainfall Rate (Hourly) Conditions
00:00 67.5 °F 62.5 °F 30.02 in Calm   1.0 mph 84% 0.00 in CLR
00:15 67.7 °F 62.3 °F 30.02 in WSW 1.0 mph 3.0 mph 83% 0.00 in CLR
00:30 67.9 °F 62.5 °F 30.03 in NW 1.0 mph 5.0 mph 83% 0.00 in CLR
00:45 67.6 °F 61.2 °F 30.02 in West 1.0 mph 5.0 mph 80% 0.00 in CLR
01:00 67.4 °F 60.3 °F 30.02 in NW 1.0 mph 5.0 mph 78% 0.00 in CLR
02:15 66.4 °F 54.7 °F 30.02 in NW 1.0 mph 8.0 mph 66% 0.00 in CLR
02:30 66.2 °F 53.7 °F 30.02 in NW 1.0 mph 5.0 mph 64% 0.00 in CLR
02:45 65.6 °F 53.5 °F 30.02 in Calm   6.0 mph 65% 0.00 in CLR
03:00 64.9 °F 53.3 °F 30.01 in Calm   2.0 mph 66% 0.00 in CLR
03:15 64.5 °F 52.5 °F 30.01 in Calm   5.0 mph 65% 0.00 in FEW
03:30 64.1 °F 52.5 °F 30.01 in Calm   3.0 mph 66% 0.00 in FEW
03:45 63.9 °F 52.3 °F 30.00 in North 1.0 mph 3.0 mph 66% 0.00 in FEW
04:00 64.2 °F 52.2 °F 29.99 in NW 1.0 mph 6.0 mph 65% 0.00 in FEW
04:15 64.6 °F 52.6 °F 29.99 in North 3.0 mph 8.0 mph 65% 0.00 in SCT
04:30 64.6 °F 52.5 °F 30.00 in North 1.0 mph 7.0 mph 65% 0.00 in SCT
04:45 64.2 °F 51.8 °F 30.01 in NW 1.0 mph 12.0 mph 64% 0.00 in SCT
05:00 63.9 °F 51.9 °F 30.00 in North 1.0 mph 8.0 mph 65% 0.00 in SCT
05:15 63.8 °F 51.4 °F 30.01 in NNW 2.0 mph 7.0 mph 64% 0.00 in FEW
05:30 63.4 °F 51.4 °F 30.01 in Calm   6.0 mph 65% 0.00 in FEW
05:45 63.3 °F 51.7 °F 30.02 in North 1.0 mph 5.0 mph 66% 0.00 in FEW
06:00 63.0 °F 51.9 °F 30.02 in NNW 1.0 mph 4.0 mph 67% 0.00 in FEW
06:15 62.9 °F 52.2 °F 30.01 in Calm   6.0 mph 68% 0.00 in FEW
06:30 62.6 °F 52.7 °F 30.01 in NNE 1.0 mph 5.0 mph 70% 0.00 in FEW
06:45 62.6 °F 53.1 °F 30.02 in North 1.0 mph 6.0 mph 71% 0.00 in FEW
07:00 62.6 °F 53.1 °F 30.02 in NNW 2.0 mph 6.0 mph 71% 0.00 in FEW
07:15 62.6 °F 52.7 °F 30.02 in NNW 1.0 mph 6.0 mph 70% 0.00 in FEW
07:30 62.5 °F 52.6 °F 30.03 in Calm   7.0 mph 70% 0.00 in FEW
07:45 62.4 °F 52.5 °F 30.02 in NW 1.0 mph 4.0 mph 70% 0.00 in FEW
08:00 62.7 °F 52.8 °F 30.02 in NNW 1.0 mph 7.0 mph 70% 0.00 in FEW
08:15 63.1 °F 52.7 °F 30.02 in North 1.0 mph 7.0 mph 69% 0.00 in SCT
08:30 63.7 °F 52.5 °F 30.03 in NNW 1.0 mph 8.0 mph 67% 0.00 in SCT
08:45 64.7 °F 52.6 °F 30.03 in North 1.0 mph 7.0 mph 65% 0.00 in SCT
09:00 66.4 °F 52.1 °F 30.03 in NNW 3.0 mph 12.0 mph 60% 0.00 in SCT
09:15 67.3 °F 52.0 °F 30.02 in North 2.0 mph 10.0 mph 58% 0.00 in SCT
09:30 67.7 °F 51.4 °F 30.02 in North 5.0 mph 12.0 mph 56% 0.00 in SCT
09:45 68.6 °F 52.3 °F 30.02 in NNW 3.0 mph 12.0 mph 56% 0.00 in SCT
10:00 68.3 °F 52.5 °F 30.03 in North 1.0 mph 8.0 mph 57% 0.00 in SCT
10:15 69.0 °F 54.1 °F 30.02 in NNW 1.0 mph 12.0 mph 59% 0.00 in FEW
10:30 70.2 °F 53.7 °F 30.02 in North 3.0 mph 10.0 mph 56% 0.00 in FEW
10:45 71.5 °F 55.0 °F 30.02 in North 1.0 mph 7.0 mph 56% 0.00 in FEW
11:00 72.2 °F 55.1 °F 30.01 in North 2.0 mph 9.0 mph 55% 0.00 in FEW
11:15 72.4 °F 56.8 °F 30.01 in NNE 2.0 mph 13.0 mph 58% 0.00 in FEW
11:30 72.7 °F 57.1 °F 30.01 in NNW 3.0 mph 10.0 mph 58% 0.00 in FEW
11:45 73.7 °F 57.5 °F 30.01 in NNW 3.0 mph 13.0 mph 57% 0.00 in FEW
12:00 74.6 °F 58.4 °F 30.01 in NNE 3.0 mph 14.0 mph 57% 0.00 in FEW
12:15 74.1 °F 56.3 °F 30.01 in North 5.0 mph 12.0 mph 54% 0.00 in FEW
12:30 74.5 °F 57.8 °F 30.00 in NE 3.0 mph 12.0 mph 56% 0.00 in FEW
12:45 74.6 °F 56.9 °F 30.00 in NNW 2.0 mph 12.0 mph 54% 0.00 in FEW
13:00 75.2 °F 57.9 °F 30.00 in NNW 3.0 mph 18.0 mph 55% 0.00 in FEW
13:15 76.2 °F 59.3 °F 29.99 in North 2.0 mph 12.0 mph 56% 0.00 in FEW
13:45 77.4 °F 59.5 °F 29.99 in NW 3.0 mph 12.0 mph 54% 0.00 in FEW
14:00 77.1 °F 59.7 °F 29.98 in NNW 5.0 mph 13.0 mph 55% 0.00 in FEW
14:15 76.6 °F 58.8 °F 29.98 in NNW 3.0 mph 13.0 mph 54% 0.00 in FEW
14:30 76.8 °F 58.4 °F 29.97 in NW 2.0 mph 15.0 mph 53% 0.00 in FEW
14:45 77.6 °F 59.1 °F 29.97 in NNW 3.0 mph 12.0 mph 53% 0.00 in FEW
15:00 77.6 °F 58.6 °F 29.97 in NW 3.0 mph 12.0 mph 52% 0.00 in FEW
15:15 78.5 °F 58.9 °F 29.97 in North 2.0 mph 13.0 mph 51% 0.00 in FEW
15:30 78.9 °F 59.2 °F 29.96 in NNE 3.0 mph 10.0 mph 51% 0.00 in FEW
15:45 78.9 °F 59.2 °F 29.96 in NW 5.0 mph 10.0 mph 51% 0.00 in FEW
16:00 78.6 °F 58.4 °F 29.96 in NW 3.0 mph 12.0 mph 50% 0.00 in FEW
16:15 78.2 °F 58.6 °F 29.95 in North 3.0 mph 10.0 mph 51% 0.00 in FEW
16:30 78.6 °F 59.5 °F 29.95 in NNW 3.0 mph 10.0 mph 52% 0.00 in FEW
16:45 78.7 °F 60.1 °F 29.95 in North 3.0 mph 12.0 mph 53% 0.00 in FEW
17:00 78.8 °F 59.7 °F 29.95 in North 6.0 mph 13.0 mph 52% 0.00 in FEW
17:15 78.3 °F 60.3 °F 29.95 in NNW 3.0 mph 13.0 mph 54% 0.00 in FEW
17:30 78.1 °F 60.1 °F 29.95 in NNW 2.0 mph 12.0 mph 54% 0.00 in FEW
17:45 78.0 °F 60.5 °F 29.96 in NNW 2.0 mph 12.0 mph 55% 0.00 in FEW
18:00 77.5 °F 59.5 °F 29.96 in NNW 3.0 mph 9.0 mph 54% 0.00 in FEW
18:15 76.7 °F 59.3 °F 29.96 in NNW 1.0 mph 8.0 mph 55% 0.00 in FEW
18:30 75.8 °F 59.0 °F 29.96 in NW 1.0 mph 7.0 mph 56% 0.00 in FEW
18:45 74.9 °F 58.1 °F 29.95 in NNW 3.0 mph 9.0 mph 56% 0.00 in FEW
19:00 74.1 °F 57.9 °F 29.96 in NW 3.0 mph 7.0 mph 57% 0.00 in FEW
19:15 73.5 °F 57.3 °F 29.96 in NNW 1.0 mph 8.0 mph 57% 0.00 in FEW
19:30 73.2 °F 57.1 °F 29.97 in NW 2.0 mph 7.0 mph 57% 0.00 in FEW
19:45 72.9 °F 56.8 °F 29.97 in NNW 1.0 mph 9.0 mph 57% 0.00 in FEW
20:00 72.4 °F 56.3 °F 29.97 in NW 2.0 mph 7.0 mph 57% 0.00 in FEW
20:15 72.1 °F 55.5 °F 29.98 in NW 1.0 mph 7.0 mph 56% 0.00 in FEW
20:30 71.8 °F 54.8 °F 29.98 in North 2.0 mph 8.0 mph 55% 0.00 in FEW
20:45 71.3 °F 54.8 °F 29.98 in NNW 1.0 mph 8.0 mph 56% 0.00 in FEW
21:00 71.1 °F 55.1 °F 29.98 in NNW 1.0 mph 9.0 mph 57% 0.00 in FEW
21:15 70.7 °F 55.7 °F 29.99 in NNW 1.0 mph 6.0 mph 59% 0.00 in CLR
21:30 70.4 °F 55.8 °F 29.98 in NW 1.0 mph 8.0 mph 60% 0.00 in CLR
21:45 70.1 °F 56.0 °F 29.98 in NW 1.0 mph 4.0 mph 61% 0.00 in CLR
22:00 70.0 °F 56.4 °F 29.98 in NW 2.0 mph 7.0 mph 62% 0.00 in CLR
22:15 69.8 °F 56.6 °F 29.99 in Calm   5.0 mph 63% 0.00 in CLR
22:30 70.0 °F 57.3 °F 29.99 in NW 2.0 mph 8.0 mph 64% 0.00 in CLR
22:45 69.9 °F 57.2 °F 29.99 in WNW 1.0 mph 8.0 mph 64% 0.00 in CLR
23:00 69.6 °F 57.7 °F 29.99 in WNW 1.0 mph 4.0 mph 66% 0.00 in CLR
23:15 69.8 °F 57.5 °F 29.98 in NNW 2.0 mph 8.0 mph 65% 0.00 in CLR
23:30 69.4 °F 57.6 °F 29.99 in WNW 1.0 mph 6.0 mph 66% 0.00 in CLR
23:45 69.3 °F 57.5 °F 29.99 in NW 1.0 mph 6.0 mph 66% 0.00 in CLR
TarryTown NY Weather
Compliments of Weather Underground - 1.5 mb